sensor_id;sensor_type;location;lat;lon;timestamp;pressure;altitude;pressure_sealevel;temperature;humidity
44663;BME280;30381;52.754;18.258;2023-02-01T00:19:39;99535.68;;;2.51;100.00
44663;BME280;30381;52.754;18.258;2023-02-01T00:22:05;99532.39;;;2.32;100.00
44663;BME280;30381;52.754;18.258;2023-02-01T00:36:31;99536.08;;;2.39;100.00
44663;BME280;30381;52.754;18.258;2023-02-01T00:38:57;99537.70;;;2.30;100.00
44663;BME280;30381;52.754;18.258;2023-02-01T00:41:23;99537.51;;;2.21;100.00
44663;BME280;30381;52.754;18.258;2023-02-01T00:43:50;99543.54;;;2.13;100.00
44663;BME280;30381;52.754;18.258;2023-02-01T00:46:19;99545.64;;;2.06;100.00
44663;BME280;30381;52.754;18.258;2023-02-01T00:48:47;99548.44;;;2.01;100.00
44663;BME280;30381;52.754;18.258;2023-02-01T00:51:17;99542.25;;;1.99;100.00
44663;BME280;30381;52.754;18.258;2023-02-01T00:53:44;99544.01;;;1.96;100.00
44663;BME280;30381;52.754;18.258;2023-02-01T00:56:13;99544.27;;;1.97;100.00
44663;BME280;30381;52.754;18.258;2023-02-01T00:58:44;99542.69;;;2.01;100.00
44663;BME280;30381;52.754;18.258;2023-02-01T01:01:14;99543.11;;;2.03;100.00
44663;BME280;30381;52.754;18.258;2023-02-01T01:03:59;99547.61;;;2.05;100.00
44663;BME280;30381;52.754;18.258;2023-02-01T01:06:31;99544.05;;;2.06;100.00
44663;BME280;30381;52.754;18.258;2023-02-01T01:09:04;99551.97;;;2.07;100.00
44663;BME280;30381;52.754;18.258;2023-02-01T01:11:39;99542.20;;;2.07;100.00
44663;BME280;30381;52.754;18.258;2023-02-01T01:14:07;99546.37;;;2.10;100.00
44663;BME280;30381;52.754;18.258;2023-02-01T01:16:34;99537.96;;;2.13;100.00
44663;BME280;30381;52.754;18.258;2023-02-01T01:19:01;99528.89;;;2.16;100.00
44663;BME280;30381;52.754;18.258;2023-02-01T01:21:30;99534.64;;;2.17;100.00
44663;BME280;30381;52.754;18.258;2023-02-01T01:23:57;99531.27;;;2.17;100.00
44663;BME280;30381;52.754;18.258;2023-02-01T01:26:27;99531.81;;;2.18;100.00
44663;BME280;30381;52.754;18.258;2023-02-01T01:28:58;99533.11;;;2.20;100.00
44663;BME280;30381;52.754;18.258;2023-02-01T01:31:25;99530.85;;;2.21;100.00
44663;BME280;30381;52.754;18.258;2023-02-01T01:33:54;99532.95;;;2.23;100.00
44663;BME280;30381;52.754;18.258;2023-02-01T01:36:22;99529.25;;;2.25;100.00
44663;BME280;30381;52.754;18.258;2023-02-01T01:38:49;99532.62;;;2.28;100.00
44663;BME280;30381;52.754;18.258;2023-02-01T01:41:19;99536.67;;;2.30;100.00
44663;BME280;30381;52.754;18.258;2023-02-01T01:44:00;99534.20;;;2.30;100.00
44663;BME280;30381;52.754;18.258;2023-02-01T01:46:33;99531.66;;;2.29;100.00
44663;BME280;30381;52.754;18.258;2023-02-01T01:49:23;99530.96;;;2.27;100.00
44663;BME280;30381;52.754;18.258;2023-02-01T01:52:01;99531.69;;;2.23;100.00
44663;BME280;30381;52.754;18.258;2023-02-01T01:54:29;99532.91;;;2.20;100.00
44663;BME280;30381;52.754;18.258;2023-02-01T01:57:02;99533.52;;;2.21;100.00
44663;BME280;30381;52.754;18.258;2023-02-01T01:59:36;99535.57;;;2.24;100.00
44663;BME280;30381;52.754;18.258;2023-02-01T02:02:04;99522.39;;;2.27;100.00
44663;BME280;30381;52.754;18.258;2023-02-01T02:04:32;99524.41;;;2.28;100.00
44663;BME280;30381;52.754;18.258;2023-02-01T02:07:04;99533.47;;;2.29;100.00
44663;BME280;30381;52.754;18.258;2023-02-01T02:09:31;99539.29;;;2.31;100.00
44663;BME280;30381;52.754;18.258;2023-02-01T02:11:57;99539.01;;;2.32;100.00
44663;BME280;30381;52.754;18.258;2023-02-01T02:14:25;99540.58;;;2.33;100.00
44663;BME280;30381;52.754;18.258;2023-02-01T02:17:15;99539.04;;;2.34;100.00
44663;BME280;30381;52.754;18.258;2023-02-01T02:42:17;99539.27;;;2.43;100.00
44663;BME280;30381;52.754;18.258;2023-02-01T02:45:23;99542.89;;;2.40;100.00
44663;BME280;30381;52.754;18.258;2023-02-01T02:50:49;99543.23;;;2.29;100.00
44663;BME280;30381;52.754;18.258;2023-02-01T02:56:38;99557.70;;;2.14;100.00
44663;BME280;30381;52.754;18.258;2023-02-01T02:59:27;99565.34;;;2.12;100.00
44663;BME280;30381;52.754;18.258;2023-02-01T03:02:14;99566.12;;;2.14;100.00
44663;BME280;30381;52.754;18.258;2023-02-01T03:05:04;99569.85;;;2.18;100.00
44663;BME280;30381;52.754;18.258;2023-02-01T03:13:53;99573.77;;;2.30;100.00
44663;BME280;30381;52.754;18.258;2023-02-01T03:18:57;99574.86;;;2.35;100.00
44663;BME280;30381;52.754;18.258;2023-02-01T03:21:37;99585.95;;;2.37;100.00
44663;BME280;30381;52.754;18.258;2023-02-01T03:24:34;99581.26;;;2.40;100.00
44663;BME280;30381;52.754;18.258;2023-02-01T03:29:44;99577.08;;;2.42;100.00
44663;BME280;30381;52.754;18.258;2023-02-01T03:32:12;99575.20;;;2.43;100.00
44663;BME280;30381;52.754;18.258;2023-02-01T03:34:39;99577.20;;;2.44;100.00
44663;BME280;30381;52.754;18.258;2023-02-01T03:37:09;99575.07;;;2.44;100.00
44663;BME280;30381;52.754;18.258;2023-02-01T03:39:52;99572.98;;;2.43;100.00
44663;BME280;30381;52.754;18.258;2023-02-01T03:42:28;99574.33;;;2.43;100.00
44663;BME280;30381;52.754;18.258;2023-02-01T03:45:22;99570.34;;;2.40;100.00
44663;BME280;30381;52.754;18.258;2023-02-01T03:47:52;99570.34;;;2.39;100.00
44663;BME280;30381;52.754;18.258;2023-02-01T03:50:21;99570.73;;;2.38;100.00
44663;BME280;30381;52.754;18.258;2023-02-01T03:53:01;99573.77;;;2.36;100.00
44663;BME280;30381;52.754;18.258;2023-02-01T03:55:30;99581.77;;;2.36;100.00
44663;BME280;30381;52.754;18.258;2023-02-01T03:58:07;99579.50;;;2.36;100.00
44663;BME280;30381;52.754;18.258;2023-02-01T04:00:35;99578.89;;;2.39;100.00
44663;BME280;30381;52.754;18.258;2023-02-01T04:03:05;99578.13;;;2.41;100.00
44663;BME280;30381;52.754;18.258;2023-02-01T04:05:33;99573.34;;;2.43;100.00
44663;BME280;30381;52.754;18.258;2023-02-01T04:08:02;99574.10;;;2.45;100.00
44663;BME280;30381;52.754;18.258;2023-02-01T04:10:32;99573.90;;;2.47;100.00
44663;BME280;30381;52.754;18.258;2023-02-01T04:12:59;99576.64;;;2.50;100.00
44663;BME280;30381;52.754;18.258;2023-02-01T04:15:25;99574.85;;;2.50;100.00
44663;BME280;30381;52.754;18.258;2023-02-01T04:17:51;99574.15;;;2.51;100.00
44663;BME280;30381;52.754;18.258;2023-02-01T04:20:23;99572.17;;;2.52;100.00
44663;BME280;30381;52.754;18.258;2023-02-01T04:22:50;99568.52;;;2.51;100.00
44663;BME280;30381;52.754;18.258;2023-02-01T04:25:17;99571.15;;;2.50;100.00
44663;BME280;30381;52.754;18.258;2023-02-01T04:27:44;99566.67;;;2.49;100.00
44663;BME280;30381;52.754;18.258;2023-02-01T04:30:13;99561.20;;;2.50;100.00
44663;BME280;30381;52.754;18.258;2023-02-01T04:32:51;99565.98;;;2.50;100.00
44663;BME280;30381;52.754;18.258;2023-02-01T04:35:20;99574.67;;;2.50;100.00
44663;BME280;30381;52.754;18.258;2023-02-01T04:37:46;99568.84;;;2.50;100.00
44663;BME280;30381;52.754;18.258;2023-02-01T04:40:12;99568.68;;;2.51;100.00
44663;BME280;30381;52.754;18.258;2023-02-01T04:42:38;99566.67;;;2.52;100.00
44663;BME280;30381;52.754;18.258;2023-02-01T04:45:09;99567.89;;;2.50;100.00
44663;BME280;30381;52.754;18.258;2023-02-01T04:47:36;99573.98;;;2.49;100.00
44663;BME280;30381;52.754;18.258;2023-02-01T04:50:03;99571.86;;;2.47;100.00
44663;BME280;30381;52.754;18.258;2023-02-01T04:52:30;99557.90;;;2.44;100.00
44663;BME280;30381;52.754;18.258;2023-02-01T04:54:56;99564.02;;;2.41;100.00
44663;BME280;30381;52.754;18.258;2023-02-01T04:57:25;99562.36;;;2.38;100.00
44663;BME280;30381;52.754;18.258;2023-02-01T04:59:52;99563.09;;;2.35;100.00
44663;BME280;30381;52.754;18.258;2023-02-01T05:02:21;99565.98;;;2.32;100.00
44663;BME280;30381;52.754;18.258;2023-02-01T05:04:47;99562.40;;;2.31;100.00
44663;BME280;30381;52.754;18.258;2023-02-01T05:07:14;99541.46;;;2.31;100.00
44663;BME280;30381;52.754;18.258;2023-02-01T05:09:40;99545.83;;;2.29;100.00
44663;BME280;30381;52.754;18.258;2023-02-01T05:12:06;99540.98;;;2.26;100.00
44663;BME280;30381;52.754;18.258;2023-02-01T05:14:51;99547.54;;;2.25;100.00
44663;BME280;30381;52.754;18.258;2023-02-01T05:17:18;99543.97;;;2.25;100.00
44663;BME280;30381;52.754;18.258;2023-02-01T05:19:44;99542.84;;;2.27;100.00
44663;BME280;30381;52.754;18.258;2023-02-01T05:22:11;99538.31;;;2.29;100.00
44663;BME280;30381;52.754;18.258;2023-02-01T05:24:37;99544.05;;;2.31;100.00
44663;BME280;30381;52.754;18.258;2023-02-01T05:27:03;99538.52;;;2.33;100.00
44663;BME280;30381;52.754;18.258;2023-02-01T05:29:29;99541.25;;;2.35;100.00
44663;BME280;30381;52.754;18.258;2023-02-01T05:31:56;99542.81;;;2.37;100.00
44663;BME280;30381;52.754;18.258;2023-02-01T05:34:22;99537.07;;;2.38;100.00
44663;BME280;30381;52.754;18.258;2023-02-01T05:36:49;99529.97;;;2.38;100.00
44663;BME280;30381;52.754;18.258;2023-02-01T05:39:16;99527.30;;;2.38;100.00
44663;BME280;30381;52.754;18.258;2023-02-01T05:41:49;99531.77;;;2.37;100.00
44663;BME280;30381;52.754;18.258;2023-02-01T05:44:16;99528.86;;;2.34;100.00
44663;BME280;30381;52.754;18.258;2023-02-01T05:46:45;99526.94;;;2.31;100.00
44663;BME280;30381;52.754;18.258;2023-02-01T05:49:12;99527.04;;;2.28;100.00
44663;BME280;30381;52.754;18.258;2023-02-01T05:51:41;99522.83;;;2.30;100.00
44663;BME280;30381;52.754;18.258;2023-02-01T05:54:09;99521.85;;;2.32;100.00
44663;BME280;30381;52.754;18.258;2023-02-01T05:56:42;99523.08;;;2.34;100.00
44663;BME280;30381;52.754;18.258;2023-02-01T05:59:09;99523.39;;;2.35;100.00
44663;BME280;30381;52.754;18.258;2023-02-01T06:01:37;99522.38;;;2.38;100.00
44663;BME280;30381;52.754;18.258;2023-02-01T06:04:03;99529.23;;;2.40;100.00
44663;BME280;30381;52.754;18.258;2023-02-01T06:06:31;99527.45;;;2.43;100.00
44663;BME280;30381;52.754;18.258;2023-02-01T06:08:58;99528.26;;;2.46;100.00
44663;BME280;30381;52.754;18.258;2023-02-01T06:11:24;99531.86;;;2.50;100.00
44663;BME280;30381;52.754;18.258;2023-02-01T06:13:52;99533.58;;;2.53;100.00
44663;BME280;30381;52.754;18.258;2023-02-01T06:16:22;99527.24;;;2.55;100.00
44663;BME280;30381;52.754;18.258;2023-02-01T06:18:50;99530.90;;;2.57;100.00
44663;BME280;30381;52.754;18.258;2023-02-01T06:21:51;99544.88;;;2.60;100.00
44663;BME280;30381;52.754;18.258;2023-02-01T06:24:24;99549.69;;;2.61;100.00
44663;BME280;30381;52.754;18.258;2023-02-01T06:26:54;99549.27;;;2.62;100.00
44663;BME280;30381;52.754;18.258;2023-02-01T06:29:21;99558.19;;;2.63;100.00
44663;BME280;30381;52.754;18.258;2023-02-01T06:31:47;99563.22;;;2.65;100.00
44663;BME280;30381;52.754;18.258;2023-02-01T06:34:27;99564.01;;;2.67;100.00
44663;BME280;30381;52.754;18.258;2023-02-01T06:36:56;99564.98;;;2.69;100.00
44663;BME280;30381;52.754;18.258;2023-02-01T06:39:24;99569.37;;;2.71;100.00
44663;BME280;30381;52.754;18.258;2023-02-01T06:41:56;99570.81;;;2.72;100.00
44663;BME280;30381;52.754;18.258;2023-02-01T06:44:22;99574.11;;;2.75;100.00
44663;BME280;30381;52.754;18.258;2023-02-01T06:46:52;99567.70;;;2.75;100.00
44663;BME280;30381;52.754;18.258;2023-02-01T06:49:36;99562.58;;;2.73;100.00
44663;BME280;30381;52.754;18.258;2023-02-01T06:52:03;99564.52;;;2.73;100.00
44663;BME280;30381;52.754;18.258;2023-02-01T06:54:29;99565.30;;;2.71;100.00
44663;BME280;30381;52.754;18.258;2023-02-01T06:57:00;99563.09;;;2.67;100.00
44663;BME280;30381;52.754;18.258;2023-02-01T06:59:30;99564.34;;;2.62;100.00
44663;BME280;30381;52.754;18.258;2023-02-01T07:02:41;99562.25;;;2.59;100.00
44663;BME280;30381;52.754;18.258;2023-02-01T07:05:08;99562.92;;;2.56;100.00
44663;BME280;30381;52.754;18.258;2023-02-01T07:07:43;99564.99;;;2.54;100.00
44663;BME280;30381;52.754;18.258;2023-02-01T07:10:17;99557.23;;;2.52;100.00
44663;BME280;30381;52.754;18.258;2023-02-01T07:12:43;99556.61;;;2.51;100.00
44663;BME280;30381;52.754;18.258;2023-02-01T07:15:16;99553.40;;;2.51;100.00
44663;BME280;30381;52.754;18.258;2023-02-01T07:17:44;99556.86;;;2.52;100.00
44663;BME280;30381;52.754;18.258;2023-02-01T07:20:10;99558.59;;;2.52;100.00
44663;BME280;30381;52.754;18.258;2023-02-01T07:22:39;99558.95;;;2.53;100.00
44663;BME280;30381;52.754;18.258;2023-02-01T07:25:08;99557.06;;;2.54;100.00
44663;BME280;30381;52.754;18.258;2023-02-01T07:27:47;99554.87;;;2.56;100.00
44663;BME280;30381;52.754;18.258;2023-02-01T07:30:40;99553.36;;;2.58;100.00
44663;BME280;30381;52.754;18.258;2023-02-01T07:33:07;99554.86;;;2.60;100.00
44663;BME280;30381;52.754;18.258;2023-02-01T07:35:35;99548.58;;;2.62;100.00
44663;BME280;30381;52.754;18.258;2023-02-01T07:38:26;99544.48;;;2.64;100.00
44663;BME280;30381;52.754;18.258;2023-02-01T07:41:02;99547.13;;;2.66;100.00
44663;BME280;30381;52.754;18.258;2023-02-01T07:43:29;99559.35;;;2.69;100.00
44663;BME280;30381;52.754;18.258;2023-02-01T07:45:57;99558.28;;;2.71;100.00
44663;BME280;30381;52.754;18.258;2023-02-01T07:48:24;99549.60;;;2.75;100.00
44663;BME280;30381;52.754;18.258;2023-02-01T07:51:08;99553.78;;;2.78;100.00
44663;BME280;30381;52.754;18.258;2023-02-01T07:53:38;99553.71;;;2.81;100.00
44663;BME280;30381;52.754;18.258;2023-02-01T07:56:11;99559.20;;;2.85;100.00
44663;BME280;30381;52.754;18.258;2023-02-01T07:58:38;99559.28;;;2.88;100.00
44663;BME280;30381;52.754;18.258;2023-02-01T08:01:14;99565.05;;;2.91;100.00
44663;BME280;30381;52.754;18.258;2023-02-01T08:03:58;99564.01;;;2.98;100.00
44663;BME280;30381;52.754;18.258;2023-02-01T08:06:31;99563.91;;;3.02;100.00
44663;BME280;30381;52.754;18.258;2023-02-01T08:08:59;99555.95;;;3.06;100.00
44663;BME280;30381;52.754;18.258;2023-02-01T08:11:26;99555.95;;;3.10;100.00
44663;BME280;30381;52.754;18.258;2023-02-01T08:13:53;99551.97;;;3.15;100.00
44663;BME280;30381;52.754;18.258;2023-02-01T08:16:23;99550.23;;;3.23;100.00
44663;BME280;30381;52.754;18.258;2023-02-01T08:18:50;99548.56;;;3.29;100.00
44663;BME280;30381;52.754;18.258;2023-02-01T08:21:21;99549.00;;;3.32;100.00
44663;BME280;30381;52.754;18.258;2023-02-01T08:23:49;99547.77;;;3.40;100.00
44663;BME280;30381;52.754;18.258;2023-02-01T08:26:21;99545.45;;;3.49;100.00
44663;BME280;30381;52.754;18.258;2023-02-01T08:28:56;99543.96;;;3.56;100.00
44663;BME280;30381;52.754;18.258;2023-02-01T08:31:24;99536.95;;;3.64;100.00
44663;BME280;30381;52.754;18.258;2023-02-01T08:33:55;99534.95;;;3.69;100.00
44663;BME280;30381;52.754;18.258;2023-02-01T08:36:23;99539.73;;;3.71;100.00
44663;BME280;30381;52.754;18.258;2023-02-01T08:38:51;99552.58;;;3.76;100.00
44663;BME280;30381;52.754;18.258;2023-02-01T08:41:20;99559.27;;;3.87;100.00
44663;BME280;30381;52.754;18.258;2023-02-01T08:43:47;99568.53;;;3.98;100.00
44663;BME280;30381;52.754;18.258;2023-02-01T08:46:13;99573.92;;;4.07;100.00
44663;BME280;30381;52.754;18.258;2023-02-01T08:48:40;99566.00;;;4.14;100.00
44663;BME280;30381;52.754;18.258;2023-02-01T08:51:11;99568.95;;;4.16;100.00
44663;BME280;30381;52.754;18.258;2023-02-01T08:53:39;99571.59;;;4.15;100.00
44663;BME280;30381;52.754;18.258;2023-02-01T08:56:08;99576.17;;;4.09;100.00
44663;BME280;30381;52.754;18.258;2023-02-01T08:58:35;99571.05;;;4.02;100.00
44663;BME280;30381;52.754;18.258;2023-02-01T09:01:10;99572.25;;;3.96;100.00
44663;BME280;30381;52.754;18.258;2023-02-01T09:03:39;99570.41;;;3.88;100.00
44663;BME280;30381;52.754;18.258;2023-02-01T09:06:08;99572.25;;;3.79;100.00
44663;BME280;30381;52.754;18.258;2023-02-01T09:08:36;99578.89;;;3.72;100.00
44663;BME280;30381;52.754;18.258;2023-02-01T09:11:06;99574.88;;;3.69;100.00
44663;BME280;30381;52.754;18.258;2023-02-01T09:13:33;99575.11;;;3.66;100.00
44663;BME280;30381;52.754;18.258;2023-02-01T09:15:59;99573.88;;;3.66;100.00
44663;BME280;30381;52.754;18.258;2023-02-01T09:18:26;99579.48;;;3.70;100.00
44663;BME280;30381;52.754;18.258;2023-02-01T09:20:52;99582.70;;;3.69;100.00
44663;BME280;30381;52.754;18.258;2023-02-01T09:23:19;99581.38;;;3.63;100.00
44663;BME280;30381;52.754;18.258;2023-02-01T09:25:46;99581.23;;;3.54;100.00
44663;BME280;30381;52.754;18.258;2023-02-01T09:28:16;99573.80;;;3.46;100.00
44663;BME280;30381;52.754;18.258;2023-02-01T09:30:43;99572.64;;;3.39;100.00
44663;BME280;30381;52.754;18.258;2023-02-01T09:33:09;99572.68;;;3.39;100.00
44663;BME280;30381;52.754;18.258;2023-02-01T09:35:35;99576.50;;;3.42;100.00
44663;BME280;30381;52.754;18.258;2023-02-01T09:38:01;99576.39;;;3.47;100.00
44663;BME280;30381;52.754;18.258;2023-02-01T09:40:27;99574.83;;;3.50;100.00
44663;BME280;30381;52.754;18.258;2023-02-01T09:48:53;99576.11;;;3.58;100.00
44663;BME280;30381;52.754;18.258;2023-02-01T09:51:24;99572.59;;;3.60;100.00
44663;BME280;30381;52.754;18.258;2023-02-01T09:56:34;99574.29;;;3.87;100.00
44663;BME280;30381;52.754;18.258;2023-02-01T09:59:04;99571.96;;;4.02;100.00
44663;BME280;30381;52.754;18.258;2023-02-01T10:01:35;99568.43;;;4.05;100.00
44663;BME280;30381;52.754;18.258;2023-02-01T10:04:09;99574.46;;;3.96;100.00
44663;BME280;30381;52.754;18.258;2023-02-01T10:18:15;99547.88;;;3.54;100.00
44663;BME280;30381;52.754;18.258;2023-02-01T10:23:54;99541.95;;;3.55;100.00
44663;BME280;30381;52.754;18.258;2023-02-01T10:26:26;99543.36;;;3.48;100.00
44663;BME280;30381;52.754;18.258;2023-02-01T10:28:58;99540.69;;;3.46;100.00
44663;BME280;30381;52.754;18.258;2023-02-01T10:31:28;99543.98;;;3.59;100.00
44663;BME280;30381;52.754;18.258;2023-02-01T10:34:01;99536.08;;;3.81;100.00
44663;BME280;30381;52.754;18.258;2023-02-01T10:36:35;99531.41;;;4.02;100.00
44663;BME280;30381;52.754;18.258;2023-02-01T10:39:05;99531.45;;;4.24;100.00
44663;BME280;30381;52.754;18.258;2023-02-01T10:41:36;99528.28;;;4.42;100.00
44663;BME280;30381;52.754;18.258;2023-02-01T10:44:06;99520.53;;;4.57;100.00
44663;BME280;30381;52.754;18.258;2023-02-01T10:46:34;99526.43;;;4.70;100.00
44663;BME280;30381;52.754;18.258;2023-02-01T10:49:03;99526.93;;;4.80;100.00
44663;BME280;30381;52.754;18.258;2023-02-01T10:51:47;99522.63;;;4.89;100.00
44663;BME280;30381;52.754;18.258;2023-02-01T10:54:17;99519.19;;;5.00;100.00
44663;BME280;30381;52.754;18.258;2023-02-01T10:56:48;99523.60;;;5.12;100.00
44663;BME280;30381;52.754;18.258;2023-02-01T10:59:17;99521.43;;;5.32;100.00
44663;BME280;30381;52.754;18.258;2023-02-01T11:01:47;99513.61;;;5.52;100.00
44663;BME280;30381;52.754;18.258;2023-02-01T11:04:15;99510.95;;;5.70;100.00
44663;BME280;30381;52.754;18.258;2023-02-01T11:06:53;99511.80;;;5.89;100.00
44663;BME280;30381;52.754;18.258;2023-02-01T11:09:31;99508.17;;;6.10;100.00
44663;BME280;30381;52.754;18.258;2023-02-01T11:11:59;99508.56;;;6.20;100.00
44663;BME280;30381;52.754;18.258;2023-02-01T11:16:58;99506.77;;;6.35;100.00
44663;BME280;30381;52.754;18.258;2023-02-01T11:19:26;99505.90;;;6.41;100.00
44663;BME280;30381;52.754;18.258;2023-02-01T11:21:57;99507.78;;;6.40;100.00
44663;BME280;30381;52.754;18.258;2023-02-01T11:24:27;99506.76;;;6.42;100.00
44663;BME280;30381;52.754;18.258;2023-02-01T11:26:59;99501.09;;;6.29;100.00
44663;BME280;30381;52.754;18.258;2023-02-01T11:29:34;99502.64;;;6.17;100.00
44663;BME280;30381;52.754;18.258;2023-02-01T11:32:01;99501.94;;;6.05;100.00
44663;BME280;30381;52.754;18.258;2023-02-01T11:35:23;99501.64;;;5.94;100.00
44663;BME280;30381;52.754;18.258;2023-02-01T11:37:40;99504.91;;;5.92;100.00
44663;BME280;30381;52.754;18.258;2023-02-01T11:45:26;99505.59;;;5.83;100.00
44663;BME280;30381;52.754;18.258;2023-02-01T11:47:55;99502.05;;;5.70;100.00
44663;BME280;30381;52.754;18.258;2023-02-01T11:50:42;99498.45;;;5.65;100.00
44663;BME280;30381;52.754;18.258;2023-02-01T11:59:21;99499.75;;;6.12;100.00
44663;BME280;30381;52.754;18.258;2023-02-01T12:02:19;99502.95;;;6.09;100.00
44663;BME280;30381;52.754;18.258;2023-02-01T12:04:56;99502.98;;;5.87;100.00
44663;BME280;30381;52.754;18.258;2023-02-01T12:07:50;99495.23;;;5.70;100.00
44663;BME280;30381;52.754;18.258;2023-02-01T12:16:02;99503.95;;;5.41;100.00
44663;BME280;30381;52.754;18.258;2023-02-01T12:18:48;99502.84;;;5.34;100.00
44663;BME280;30381;52.754;18.258;2023-02-01T12:24:15;99505.66;;;5.25;100.00
44663;BME280;30381;52.754;18.258;2023-02-01T12:27:02;99498.54;;;5.17;100.00
44663;BME280;30381;52.754;18.258;2023-02-01T12:35:37;99498.75;;;4.96;100.00
44663;BME280;30381;52.754;18.258;2023-02-01T12:43:25;99493.77;;;5.04;100.00
44663;BME280;30381;52.754;18.258;2023-02-01T12:46:09;99489.84;;;5.06;100.00
44663;BME280;30381;52.754;18.258;2023-02-01T12:51:19;99488.86;;;5.02;100.00
44663;BME280;30381;52.754;18.258;2023-02-01T12:56:28;99490.27;;;5.02;100.00
44663;BME280;30381;52.754;18.258;2023-02-01T12:59:03;99486.78;;;4.98;100.00
44663;BME280;30381;52.754;18.258;2023-02-01T13:01:42;99483.98;;;4.91;100.00
44663;BME280;30381;52.754;18.258;2023-02-01T13:04:20;99484.71;;;4.86;100.00
44663;BME280;30381;52.754;18.258;2023-02-01T13:07:01;99486.98;;;4.83;100.00
44663;BME280;30381;52.754;18.258;2023-02-01T13:10:01;99485.41;;;4.76;100.00
44663;BME280;30381;52.754;18.258;2023-02-01T13:13:04;99489.32;;;4.70;100.00
44663;BME280;30381;52.754;18.258;2023-02-01T13:15:46;99490.44;;;4.65;100.00
44663;BME280;30381;52.754;18.258;2023-02-01T13:18:18;99491.83;;;4.63;100.00
44663;BME280;30381;52.754;18.258;2023-02-01T13:21:06;99494.92;;;4.58;100.00
44663;BME280;30381;52.754;18.258;2023-02-01T13:23:39;99494.86;;;4.53;100.00
44663;BME280;30381;52.754;18.258;2023-02-01T13:26:06;99499.78;;;4.49;100.00
44663;BME280;30381;52.754;18.258;2023-02-01T13:31:31;99510.70;;;4.41;100.00
44663;BME280;30381;52.754;18.258;2023-02-01T13:37:09;99509.52;;;4.48;100.00
44663;BME280;30381;52.754;18.258;2023-02-01T13:42:42;99507.11;;;4.60;100.00
44663;BME280;30381;52.754;18.258;2023-02-01T13:45:22;99504.06;;;4.63;100.00
44663;BME280;30381;52.754;18.258;2023-02-01T13:47:52;99504.48;;;4.65;100.00
44663;BME280;30381;52.754;18.258;2023-02-01T13:50:32;99507.86;;;4.65;100.00
44663;BME280;30381;52.754;18.258;2023-02-01T13:55:39;99503.84;;;4.72;100.00
44663;BME280;30381;52.754;18.258;2023-02-01T14:04:04;99511.92;;;4.82;100.00
44663;BME280;30381;52.754;18.258;2023-02-01T14:19:28;99509.60;;;4.47;100.00
44663;BME280;30381;52.754;18.258;2023-02-01T14:21:57;99508.17;;;4.42;100.00
44663;BME280;30381;52.754;18.258;2023-02-01T14:24:32;99505.80;;;4.33;100.00
44663;BME280;30381;52.754;18.258;2023-02-01T14:27:02;99509.11;;;4.28;100.00
44663;BME280;30381;52.754;18.258;2023-02-01T14:29:43;99506.27;;;4.23;100.00
44663;BME280;30381;52.754;18.258;2023-02-01T14:32:17;99508.20;;;4.19;100.00
44663;BME280;30381;52.754;18.258;2023-02-01T14:47:49;99510.05;;;4.14;100.00
44663;BME280;30381;52.754;18.258;2023-02-01T14:58:51;99522.42;;;3.95;100.00
44663;BME280;30381;52.754;18.258;2023-02-01T15:06:41;99515.84;;;3.75;100.00
44663;BME280;30381;52.754;18.258;2023-02-01T15:09:15;99518.55;;;3.66;100.00
44663;BME280;30381;52.754;18.258;2023-02-01T15:14:46;99521.67;;;3.57;100.00
44663;BME280;30381;52.754;18.258;2023-02-01T15:17:22;99518.51;;;3.55;100.00
44663;BME280;30381;52.754;18.258;2023-02-01T15:19:59;99526.48;;;3.54;100.00
44663;BME280;30381;52.754;18.258;2023-02-01T15:22:27;99520.59;;;3.52;100.00
44663;BME280;30381;52.754;18.258;2023-02-01T15:25:03;99525.57;;;3.51;100.00
44663;BME280;30381;52.754;18.258;2023-02-01T15:27:39;99532.73;;;3.51;100.00
44663;BME280;30381;52.754;18.258;2023-02-01T15:30:08;99531.26;;;3.50;100.00
44663;BME280;30381;52.754;18.258;2023-02-01T15:32:43;99527.22;;;3.49;100.00
44663;BME280;30381;52.754;18.258;2023-02-01T15:35:39;99525.97;;;3.48;100.00
44663;BME280;30381;52.754;18.258;2023-02-01T15:41:28;99528.95;;;3.44;100.00
44663;BME280;30381;52.754;18.258;2023-02-01T15:44:17;99530.33;;;3.42;100.00
44663;BME280;30381;52.754;18.258;2023-02-01T15:46:56;99528.31;;;3.40;100.00
44663;BME280;30381;52.754;18.258;2023-02-01T15:49:36;99529.73;;;3.38;100.00
44663;BME280;30381;52.754;18.258;2023-02-01T15:53:01;99527.44;;;3.36;100.00
44663;BME280;30381;52.754;18.258;2023-02-01T15:55:52;99528.67;;;3.35;100.00
44663;BME280;30381;52.754;18.258;2023-02-01T15:58:08;99533.70;;;3.33;100.00
44663;BME280;30381;52.754;18.258;2023-02-01T16:01:13;99542.95;;;3.34;100.00
44663;BME280;30381;52.754;18.258;2023-02-01T16:04:21;99537.20;;;3.33;100.00
44663;BME280;30381;52.754;18.258;2023-02-01T16:07:25;99531.40;;;3.33;100.00
44663;BME280;30381;52.754;18.258;2023-02-01T16:10:18;99534.48;;;3.34;100.00
44663;BME280;30381;52.754;18.258;2023-02-01T16:12:51;99527.19;;;3.35;100.00
44663;BME280;30381;52.754;18.258;2023-02-01T16:16:04;99525.55;;;3.36;100.00
44663;BME280;30381;52.754;18.258;2023-02-01T16:19:17;99522.30;;;3.35;100.00
44663;BME280;30381;52.754;18.258;2023-02-01T16:30:18;99517.04;;;3.28;100.00
44663;BME280;30381;52.754;18.258;2023-02-01T16:33:36;99511.80;;;3.26;100.00
44663;BME280;30381;52.754;18.258;2023-02-01T16:40:37;99529.24;;;3.16;100.00
44663;BME280;30381;52.754;18.258;2023-02-01T16:43:28;99528.56;;;3.12;100.00
44663;BME280;30381;52.754;18.258;2023-02-01T16:45:59;99523.85;;;3.09;100.00
44663;BME280;30381;52.754;18.258;2023-02-01T16:48:34;99519.28;;;3.03;100.00
44663;BME280;30381;52.754;18.258;2023-02-01T16:51:04;99518.13;;;2.97;100.00